Time;durP1;ratioP1;P1;durP2;ratioP2;P2;SDS_P1;SDS_P2;PMS_P1;PMS_P2;Temp;Humidity;BMP_temperature;BMP_pressure;BME280_temperature;BME280_humidity;BME280_pressure;Samples;Min_cycle;Max_cycle;Signal;HPM_P1;HPM_P2
2021/12/24 00:00:16;;;;;;;38.00;20.00;;;;;;;8.72;54.79;101026.50;4958236;28;20035;-78
2021/12/24 00:03:01;;;;;;;49.45;27.02;;;;;;;8.82;54.39;101027.16;4952306;28;20047;-78
2021/12/24 00:05:46;;;;;;;41.60;19.63;;;;;;;8.72;55.87;101040.06;4972243;28;20050;-79
2021/12/24 00:08:33;;;;;;;50.03;26.58;;;;;;;8.66;56.14;101033.91;4956052;28;20058;-78
2021/12/24 00:11:17;;;;;;;54.08;27.88;;;;;;;8.75;56.14;101021.28;4970067;28;20043;-78
2021/12/24 00:14:05;;;;;;;41.08;20.88;;;;;;;8.65;56.38;101024.16;4985988;28;20049;-79
2021/12/24 00:16:54;;;;;;;47.05;26.23;;;;;;;8.56;56.17;101013.19;4962575;28;20050;-78
2021/12/24 00:19:47;;;;;;;50.30;27.20;;;;;;;8.53;56.43;100997.50;4960094;28;20058;-78
2021/12/24 00:23:13;;;;;;;50.03;26.60;;;;;;;8.68;55.82;101011.94;4984557;28;20054;-78
2021/12/24 00:35:13;;;;;;;52.30;26.55;;;;;;;8.78;56.10;100999.03;4970748;28;20039;-79
2021/12/24 00:38:03;;;;;;;62.78;30.45;;;;;;;8.77;56.19;100997.41;4960064;28;20530;-78
2021/12/24 00:40:48;;;;;;;46.90;25.45;;;;;;;8.70;55.51;100996.97;4970490;28;20046;-78
2021/12/24 00:43:33;;;;;;;39.67;23.25;;;;;;;8.75;55.52;101002.31;4970090;28;20049;-78
2021/12/24 00:46:18;;;;;;;41.83;21.70;;;;;;;8.85;55.14;101007.56;4978276;28;20057;-78
2021/12/24 00:49:03;;;;;;;43.95;23.60;;;;;;;8.87;55.20;100999.94;4976005;28;20050;-78
2021/12/24 00:57:46;;;;;;;50.40;26.88;;;;;;;8.88;55.20;100996.13;4975977;28;20046;-78
2021/12/24 01:00:34;;;;;;;50.75;28.80;;;;;;;8.89;54.88;100996.91;4977818;28;20049;-78
2021/12/24 01:03:19;;;;;;;51.25;25.85;;;;;;;8.77;55.30;100986.56;4963122;28;20051;-78
2021/12/24 01:06:04;;;;;;;70.55;32.80;;;;;;;9.04;55.95;100993.94;4974640;28;20523;-78
2021/12/24 01:08:50;;;;;;;63.58;31.10;;;;;;;8.88;55.67;100982.56;4982032;28;20035;-78
2021/12/24 01:11:34;;;;;;;46.20;21.55;;;;;;;9.04;54.62;100991.22;4989541;28;20042;-78
2021/12/24 01:14:22;;;;;;;51.65;26.95;;;;;;;8.82;55.57;101000.03;4974047;28;20043;-78
2021/12/24 01:17:19;;;;;;;50.78;28.00;;;;;;;8.89;55.91;100999.63;4991402;28;20408;-78
2021/12/24 01:20:17;;;;;;;53.00;27.20;;;;;;;8.94;55.60;100996.81;4975301;28;20120;-78
2021/12/24 01:25:59;;;;;;;52.35;27.35;;;;;;;8.90;54.91;100998.53;4968477;29;20051;-78
2021/12/24 01:29:32;;;;;;;52.15;26.88;;;;;;;8.91;54.66;100986.59;4961442;28;20045;-78
2021/12/24 01:38:11;;;;;;;55.83;27.45;;;;;;;8.97;54.91;100979.97;4987325;28;20046;-78
2021/12/24 01:43:41;;;;;;;38.22;21.98;;;;;;;8.89;55.77;100967.09;4974351;28;20039;-79
2021/12/24 01:46:26;;;;;;;;;;;;;;;8.91;54.78;100962.19;4978816;28;20050;-78
2021/12/24 01:49:10;;;;;;;49.67;25.65;;;;;;;8.82;54.36;100959.34;4988601;28;19914;-78
2021/12/24 01:51:57;;;;;;;43.78;25.52;;;;;;;8.95;54.16;100958.56;4972116;28;20039;-78
2021/12/24 01:54:44;;;;;;;50.83;25.55;;;;;;;8.85;54.67;100975.03;4963547;28;20043;-78
2021/12/24 01:57:31;;;;;;;52.03;28.80;;;;;;;8.75;55.77;100968.97;4975608;28;20042;-78
2021/12/24 02:00:24;;;;;;;54.80;29.20;;;;;;;8.87;54.64;100967.41;4957086;28;20519;-78
2021/12/24 02:03:11;;;;;;;51.45;28.98;;;;;;;9.02;54.33;100963.63;4969934;28;20042;-78
2021/12/24 02:05:56;;;;;;;52.33;29.27;;;;;;;8.85;54.73;100960.66;4969638;28;20051;-78
2021/12/24 02:08:41;;;;;;;53.30;24.77;;;;;;;8.88;54.83;100960.06;4978438;28;20045;-78
2021/12/24 02:11:26;;;;;;;61.47;30.48;;;;;;;8.90;54.77;100952.44;4972165;28;20066;-78
2021/12/24 02:14:20;;;;;;;55.97;28.95;;;;;;;9.00;54.40;100950.34;4975782;28;20059;-78
2021/12/24 02:29:20;;;;;;;55.33;28.52;;;;;;;8.92;54.99;100918.50;4952901;28;20416;-78
2021/12/24 02:32:06;;;;;;;38.70;21.67;;;;;;;8.97;55.04;100915.69;4961738;28;20049;-78
2021/12/24 02:34:51;;;;;;;54.03;28.42;;;;;;;8.99;55.07;100920.81;4970342;28;20041;-80
2021/12/24 02:37:36;;;;;;;41.50;20.77;;;;;;;8.98;54.93;100928.16;4958942;28;20529;-78
2021/12/24 02:40:22;;;;;;;40.65;22.10;;;;;;;8.99;55.03;100931.66;4975605;28;20054;-78
2021/12/24 02:43:12;;;;;;;62.35;29.67;;;;;;;9.07;54.80;100909.28;4961485;28;20080;-78
2021/12/24 02:46:06;;;;;;;68.53;34.65;;;;;;;9.14;54.76;100908.88;4959163;28;20043;-78
2021/12/24 02:54:43;;;;;;;80.05;34.05;;;;;;;9.23;54.91;100886.19;4977310;28;20039;-78
2021/12/24 02:57:30;;;;;;;85.85;34.80;;;;;;;9.42;55.99;100878.72;4961812;28;20541;-78
2021/12/24 03:00:20;;;;;;;73.18;37.50;;;;;;;9.51;56.33;100867.94;4973840;28;20073;-79
2021/12/24 03:03:05;;;;;;;67.72;32.92;;;;;;;9.42;55.57;100865.16;4964750;28;20049;-78
2021/12/24 03:05:50;;;;;;;39.05;21.58;;;;;;;9.11;53.83;100874.19;4961474;28;20050;-78
2021/12/24 03:08:35;;;;;;;40.53;20.98;;;;;;;9.00;54.97;100887.16;4972288;28;20050;-79
2021/12/24 03:11:20;;;;;;;59.17;29.05;;;;;;;9.24;55.76;100884.28;4977194;28;20038;-78
2021/12/24 03:14:07;;;;;;;37.58;20.95;;;;;;;9.00;54.48;100868.97;4978089;28;20046;-78
2021/12/24 03:16:55;;;;;;;59.38;30.25;;;;;;;9.09;54.72;100860.97;4968761;28;20045;-78
2021/12/24 03:19:41;;;;;;;48.42;25.05;;;;;;;8.89;54.40;100869.47;4956177;29;20046;-79
2021/12/24 03:25:21;;;;;;;57.25;30.05;;;;;;;8.96;54.72;100873.41;4992085;28;20057;-78
2021/12/24 03:28:09;;;;;;;48.63;25.90;;;;;;;8.92;54.48;100882.44;4966315;28;20412;-78
2021/12/24 03:30:53;;;;;;;45.58;21.65;;;;;;;8.90;55.20;100884.63;4960442;28;20047;-78
2021/12/24 03:33:39;;;;;;;38.78;22.05;;;;;;;8.91;55.20;100873.50;4978997;28;20232;-78
2021/12/24 03:36:26;;;;;;;41.38;21.02;;;;;;;8.87;54.75;100882.53;4996915;28;20062;-79
2021/12/24 03:39:13;;;;;;;61.22;32.08;;;;;;;9.01;55.76;100873.31;4976677;28;20054;-79
2021/12/24 03:41:58;;;;;;;53.85;26.70;;;;;;;8.94;54.64;100861.22;4975137;28;20041;-79
2021/12/24 03:44:51;;;;;;;48.72;23.50;;;;;;;8.63;55.36;100887.31;4965303;28;20047;-79
2021/12/24 03:47:40;;;;;;;53.75;29.15;;;;;;;8.79;56.04;100864.22;4975608;28;20038;-78
2021/12/24 03:50:38;;;;;;;53.15;29.33;;;;;;;8.89;55.37;100855.91;4950856;28;20053;-79
2021/12/24 03:56:28;;;;;;;60.60;32.17;;;;;;;8.85;55.45;100852.19;4979650;28;20043;-79
2021/12/24 03:59:13;;;;;;;58.38;29.40;;;;;;;8.95;55.47;100860.13;4972144;28;20058;-79
2021/12/24 04:02:16;;;;;;;52.25;26.67;;;;;;;8.77;55.44;100861.84;4978661;28;20039;-79
2021/12/24 04:05:22;;;;;;;59.93;27.13;;;;;;;8.75;56.94;100868.66;4957582;28;20047;-79
2021/12/24 04:08:33;;;;;;;57.50;26.92;;;;;;;8.73;56.74;100851.88;4962590;28;20042;-79
2021/12/24 04:11:33;;;;;;;53.28;27.33;;;;;;;8.64;56.37;100878.88;4968656;28;20419;-79
2021/12/24 04:14:18;;;;;;;55.20;27.35;;;;;;;8.75;57.25;100869.44;4953893;28;20050;-79
2021/12/24 04:17:04;;;;;;;50.28;26.30;;;;;;;8.85;57.17;100857.63;4978149;28;20053;-79
2021/12/24 04:25:55;;;;;;;58.70;31.67;;;;;;;8.87;56.65;100852.72;4977004;28;20046;-79
2021/12/24 04:28:41;;;;;;;45.28;21.35;;;;;;;8.82;56.79;100852.81;4966368;28;20042;-78
2021/12/24 04:31:28;;;;;;;45.70;22.92;;;;;;;8.87;56.64;100850.00;4951814;28;20039;-79
2021/12/24 04:34:33;;;;;;;48.90;26.38;;;;;;;8.72;56.33;100848.38;4971391;28;20047;-79
2021/12/24 05:04:37;;;;;;;65.70;31.88;;;;;;;8.96;56.63;100829.19;4942765;28;20420;-77
2021/12/24 05:10:17;;;;;;;108.43;45.72;;;;;;;9.10;58.13;100793.91;4953891;28;20043;-77
2021/12/24 05:13:03;;;;;;;79.05;41.05;;;;;;;9.15;57.51;100802.75;4955959;28;20064;-77
2021/12/24 05:16:06;;;;;;;88.25;37.65;;;;;;;9.05;57.74;100786.69;4962158;28;20043;-78
2021/12/24 05:22:44;;;;;;;102.93;42.75;;;;;;;9.22;58.77;100814.03;4955355;28;20046;-78
2021/12/24 05:25:40;;;;;;;81.88;37.13;;;;;;;9.30;58.54;100804.34;4979550;28;20038;-78
2021/12/24 05:28:25;;;;;;;70.72;33.72;;;;;;;9.11;57.70;100796.34;4958836;28;20038;-78
2021/12/24 05:31:10;;;;;;;43.03;20.60;;;;;;;9.02;56.56;100798.97;4951555;28;20050;-78
2021/12/24 05:33:56;;;;;;;58.75;25.35;;;;;;;9.07;57.18;100792.63;4964760;28;20047;-78
2021/12/24 05:36:41;;;;;;;59.53;30.33;;;;;;;9.11;56.81;100790.13;4964674;28;20051;-78
2021/12/24 05:39:26;;;;;;;55.35;28.10;;;;;;;9.04;56.11;100792.44;4951692;28;20046;-78
2021/12/24 05:42:12;;;;;;;59.70;30.25;;;;;;;8.99;56.40;100796.84;4950763;28;20043;-78
2021/12/24 05:45:03;;;;;;;40.67;22.75;;;;;;;8.94;57.03;100785.28;4962676;28;20050;-79
2021/12/24 05:48:23;;;;;;;61.33;30.50;;;;;;;8.82;56.41;100785.00;4971938;28;20035;-77
2021/12/24 05:51:11;;;;;;;67.53;32.83;;;;;;;8.90;56.79;100774.25;4955751;28;20282;-78
2021/12/24 05:54:05;;;;;;;63.78;32.30;;;;;;;8.96;57.60;100780.38;4976286;28;20042;-78
2021/12/24 05:56:51;;;;;;;67.43;32.60;;;;;;;8.84;56.69;100766.53;4964328;28;20039;-78
2021/12/24 05:59:38;;;;;;;52.45;27.27;;;;;;;8.83;57.38;100773.88;4961141;28;20081;-78
2021/12/24 06:02:23;;;;;;;48.72;24.70;;;;;;;8.81;56.93;100772.56;4964253;28;20416;-77
2021/12/24 06:05:08;;;;;;;58.90;27.02;;;;;;;8.89;57.50;100774.56;4950184;28;20046;-78
2021/12/24 06:07:53;;;;;;;62.03;30.73;;;;;;;8.88;57.09;100775.69;4975885;28;20062;-78
2021/12/24 06:10:39;;;;;;;40.05;21.48;;;;;;;8.82;57.54;100779.59;4975009;28;20415;-78
2021/12/24 06:13:25;;;;;;;83.57;35.50;;;;;;;8.98;59.28;100786.31;4953708;28;20403;-78
2021/12/24 06:16:10;;;;;;;52.38;28.75;;;;;;;8.88;57.90;100783.81;4983293;28;20080;-77
2021/12/24 06:19:00;;;;;;;48.67;22.98;;;;;;;8.89;58.35;100785.41;4970591;28;20047;-78
2021/12/24 06:21:45;;;;;;;51.35;28.50;;;;;;;8.91;58.55;100785.91;4949774;28;20027;-79
2021/12/24 06:24:30;;;;;;;53.38;27.55;;;;;;;8.86;57.58;100780.59;4963669;28;20046;-78
2021/12/24 06:27:15;;;;;;;53.75;26.00;;;;;;;8.91;58.00;100781.28;4967104;28;20042;-78
2021/12/24 06:30:01;;;;;;;51.72;24.13;;;;;;;8.97;58.35;100780.09;4984785;28;20061;-78
2021/12/24 06:32:45;;;;;;;105.05;41.13;;;;;;;9.18;59.55;100780.47;4963560;28;20035;-78
2021/12/24 06:35:31;;;;;;;;;;;;;;;9.28;59.79;100782.16;4980003;28;20443;-78
2021/12/24 06:38:15;;;;;;;82.40;35.22;;;;;;;9.13;58.62;100779.78;4983521;28;19914;-78
2021/12/24 06:41:00;;;;;;;55.83;26.40;;;;;;;9.26;59.49;100785.16;4974777;28;20055;-78
2021/12/24 06:43:45;;;;;;;62.38;30.70;;;;;;;9.29;60.10;100803.56;4975174;28;20035;-78
2021/12/24 06:46:29;;;;;;;69.35;33.50;;;;;;;9.20;58.28;100796.41;4976662;28;20046;-78
2021/12/24 06:49:14;;;;;;;;;;;;;;;9.32;60.03;100802.94;4995470;28;20050;-78
2021/12/24 06:51:59;;;;;;;98.13;43.33;;;;;;;9.35;60.80;100798.81;4970968;28;19921;-79
2021/12/24 06:54:43;;;;;;;69.30;28.70;;;;;;;9.42;61.81;100797.28;4963525;28;20539;-78
2021/12/24 06:57:29;;;;;;;77.82;37.67;;;;;;;9.32;59.45;100797.53;4961078;28;20054;-79
2021/12/24 07:00:20;;;;;;;100.85;41.65;;;;;;;9.31;59.72;100787.78;4960415;28;20043;-78
2021/12/24 07:03:07;;;;;;;70.75;32.80;;;;;;;9.20;60.09;100799.13;4967258;28;20038;-78
2021/12/24 07:05:52;;;;;;;56.65;25.77;;;;;;;9.36;61.12;100803.13;4944650;28;20043;-78
2021/12/24 07:08:37;;;;;;;61.58;27.67;;;;;;;9.37;60.24;100816.41;4952056;28;20500;-79
2021/12/24 07:11:22;;;;;;;78.32;31.23;;;;;;;9.43;61.97;100804.34;4976454;28;20065;-78
2021/12/24 07:14:08;;;;;;;65.05;26.65;;;;;;;9.39;60.16;100814.22;4945972;28;20047;-78
2021/12/24 07:16:53;;;;;;;57.78;28.60;;;;;;;9.28;59.26;100820.16;4954763;28;20588;-78
2021/12/24 07:19:37;;;;;;;48.83;25.75;;;;;;;9.25;58.75;100810.69;4958276;28;20054;-80
2021/12/24 07:22:22;;;;;;;49.03;21.27;;;;;;;9.22;58.11;100824.06;4962383;28;20050;-79
2021/12/24 07:25:08;;;;;;;40.15;22.45;;;;;;;9.16;58.86;100823.38;4974373;28;20057;-79
2021/12/24 07:27:53;;;;;;;59.20;28.90;;;;;;;9.06;57.17;100828.19;4942639;28;20042;-80
2021/12/24 07:30:38;;;;;;;50.80;25.25;;;;;;;9.18;59.33;100828.50;4967516;28;20503;-79
2021/12/24 07:33:22;;;;;;;54.33;22.57;;;;;;;9.27;59.82;100822.06;4980794;28;20034;-79
2021/12/24 07:36:07;;;;;;;54.72;26.05;;;;;;;9.14;58.53;100820.16;4971042;28;20281;-81
2021/12/24 07:38:52;;;;;;;51.67;23.55;;;;;;;9.23;58.19;100809.41;4967541;28;20499;-79
2021/12/24 07:41:37;;;;;;;47.70;24.88;;;;;;;9.08;57.94;100785.31;4960231;28;20507;-79
2021/12/24 07:44:28;;;;;;;65.30;29.80;;;;;;;9.21;57.92;100787.19;4963301;28;20050;-78
2021/12/24 07:47:27;;;;;;;61.03;26.90;;;;;;;8.84;56.61;100780.88;4978478;28;20053;-78
2021/12/24 07:53:14;;;;;;;79.07;28.88;;;;;;;9.00;57.56;100765.91;4980746;28;20066;-78
2021/12/24 07:55:59;;;;;;;72.88;32.45;;;;;;;9.06;59.43;100769.31;4961632;28;20047;-78
2021/12/24 07:58:44;;;;;;;44.40;22.02;;;;;;;9.00;57.92;100786.81;4949067;28;20043;-78
2021/12/24 08:01:29;;;;;;;37.28;20.45;;;;;;;8.97;56.13;100779.28;4964330;28;20504;-78
2021/12/24 08:04:14;;;;;;;40.92;20.88;;;;;;;8.67;55.79;100785.31;4966350;28;20050;-82
2021/12/24 08:07:01;;;;;;;50.95;28.85;;;;;;;8.76;55.96;100775.38;4958871;28;20046;-78
2021/12/24 08:09:46;;;;;;;58.88;29.70;;;;;;;8.85;56.30;100776.25;4957674;28;20061;-79
2021/12/24 08:12:30;;;;;;;45.47;21.40;;;;;;;8.67;56.12;100775.28;4962681;28;20042;-79
2021/12/24 08:15:17;;;;;;;44.33;20.90;;;;;;;8.61;55.87;100762.91;4951860;28;20050;-79
2021/12/24 08:18:02;;;;;;;59.08;29.10;;;;;;;8.70;58.08;100763.81;4960905;28;20539;-79
2021/12/24 08:20:47;;;;;;;43.15;20.58;;;;;;;8.74;57.56;100759.41;4934440;28;20051;-79
2021/12/24 08:23:32;;;;;;;46.22;23.45;;;;;;;8.74;57.45;100750.47;4970991;28;20035;-79
2021/12/24 08:26:18;;;;;;;45.10;20.77;;;;;;;8.62;56.51;100736.63;4958337;28;20042;-79
2021/12/24 08:29:03;;;;;;;48.55;27.50;;;;;;;8.49;57.07;100739.00;4958355;28;20042;-80
2021/12/24 08:31:52;;;;;;;47.22;21.38;;;;;;;8.49;56.97;100733.59;4954679;28;20050;-79
2021/12/24 08:34:38;;;;;;;60.38;29.20;;;;;;;8.64;56.87;100742.53;4956626;28;20039;-79
2021/12/24 08:37:23;;;;;;;63.25;28.77;;;;;;;8.80;58.30;100747.34;4947502;28;20046;-80
2021/12/24 08:40:09;;;;;;;57.53;23.85;;;;;;;8.91;60.80;100750.66;4945172;28;20047;-79
2021/12/24 08:42:54;;;;;;;75.55;32.80;;;;;;;9.07;61.72;100738.38;4951314;28;20038;-79
2021/12/24 08:45:39;;;;;;;50.65;24.58;;;;;;;9.19;63.81;100741.38;4948962;28;20054;-79
2021/12/24 08:48:24;;;;;;;48.17;27.35;;;;;;;9.07;58.68;100743.00;4950883;28;20042;-79
2021/12/24 08:51:08;;;;;;;58.90;28.85;;;;;;;8.83;57.12;100726.97;4958525;28;20043;-79
2021/12/24 08:53:53;;;;;;;52.70;23.95;;;;;;;8.81;58.40;100718.34;4943399;28;20047;-80
2021/12/24 08:56:38;;;;;;;51.95;25.00;;;;;;;9.16;61.76;100714.84;4951730;28;20058;-79
2021/12/24 08:59:24;;;;;;;40.22;20.73;;;;;;;9.06;60.71;100727.84;4972179;28;20420;-80
2021/12/24 09:02:08;;;;;;;42.30;24.10;;;;;;;9.11;57.17;100725.81;4960043;28;20435;-83
2021/12/24 09:04:53;;;;;;;38.78;21.25;;;;;;;9.01;55.88;100717.91;4958255;28;20074;-79
2021/12/24 09:07:38;;;;;;;57.60;28.10;;;;;;;8.87;56.69;100709.00;4964354;28;20054;-79
2021/12/24 09:10:22;;;;;;;42.15;20.95;;;;;;;8.57;56.61;100711.22;4959720;28;20443;-79
2021/12/24 09:13:07;;;;;;;39.72;22.35;;;;;;;8.17;58.34;100701.16;4945687;28;20499;-79
2021/12/24 09:15:53;;;;;;;42.63;22.15;;;;;;;7.97;57.82;100712.34;4939998;28;20517;-78
2021/12/24 09:18:41;;;;;;;51.75;28.73;;;;;;;7.99;58.27;100710.13;4935400;28;20046;-79
2021/12/24 09:21:26;;;;;;;56.20;27.95;;;;;;;8.13;57.71;100721.78;4947665;28;20042;-78
2021/12/24 09:24:11;;;;;;;52.58;27.73;;;;;;;7.94;58.13;100715.63;4954396;28;20055;-79
2021/12/24 09:26:57;;;;;;;47.25;23.15;;;;;;;8.31;57.57;100720.97;4945944;28;20515;-79
2021/12/24 09:29:42;;;;;;;47.20;24.52;;;;;;;7.91;57.49;100713.53;4959462;28;20054;-79
2021/12/24 09:32:29;;;;;;;35.58;20.30;;;;;;;7.78;57.13;100717.00;4954391;28;20058;-79
2021/12/24 09:35:14;;;;;;;50.78;26.40;;;;;;;8.22;56.56;100716.50;4953333;28;20053;-80
2021/12/24 09:38:00;;;;;;;44.95;22.80;;;;;;;8.21;56.75;100723.81;4961177;28;20038;-79
2021/12/24 09:40:44;;;;;;;50.25;25.23;;;;;;;8.12;56.55;100725.63;4973138;28;20042;-79
2021/12/24 09:43:29;;;;;;;40.28;20.58;;;;;;;8.28;56.82;100721.50;4979491;28;20050;-79
2021/12/24 09:46:15;;;;;;;41.67;20.58;;;;;;;8.39;59.15;100731.09;4964801;28;20047;-83
2021/12/24 09:49:00;;;;;;;55.05;24.92;;;;;;;8.63;61.34;100725.50;4962980;28;20516;-79
2021/12/24 09:51:50;;;;;;;37.97;20.65;;;;;;;8.50;59.43;100737.13;4977845;28;20047;-79
2021/12/24 09:54:34;;;;;;;45.85;26.27;;;;;;;8.57;59.36;100735.63;4961497;28;20043;-80
2021/12/24 09:57:19;;;;;;;42.83;22.88;;;;;;;8.45;57.67;100729.88;4961479;28;20047;-78
2021/12/24 10:00:06;;;;;;;49.63;21.98;;;;;;;8.32;57.67;100730.69;4949838;28;20047;-78
2021/12/24 10:02:57;;;;;;;69.07;26.65;;;;;;;8.32;58.10;100738.00;4962148;28;20423;-79
2021/12/24 10:05:43;;;;;;;48.58;27.30;;;;;;;8.37;57.70;100727.09;4956260;28;20055;-79
2021/12/24 10:08:29;;;;;;;54.90;28.45;;;;;;;8.22;57.06;100730.03;4965365;28;20070;-80
2021/12/24 10:11:16;;;;;;;45.63;26.70;;;;;;;8.17;57.17;100739.06;4954602;28;20042;-79
2021/12/24 10:14:05;;;;;;;57.20;27.08;;;;;;;8.20;56.52;100732.22;4955851;28;20043;-79
2021/12/24 10:16:51;;;;;;;51.10;28.48;;;;;;;8.18;56.23;100721.69;4944432;28;20420;-79
2021/12/24 10:20:17;;;;;;;53.60;28.20;;;;;;;8.36;55.86;100720.06;4964160;28;20039;-80
2021/12/24 10:23:01;;;;;;;36.70;21.57;;;;;;;8.48;55.77;100718.44;4970195;28;20035;-79
2021/12/24 10:25:46;;;;;;;41.00;23.63;;;;;;;8.31;55.37;100707.41;4953503;28;20042;-79
2021/12/24 10:28:31;;;;;;;72.28;29.60;;;;;;;8.20;56.56;100700.53;4954126;28;20055;-80
2021/12/24 10:31:25;;;;;;;40.97;22.35;;;;;;;8.46;56.52;100698.97;4963437;28;20420;-79
2021/12/24 10:34:12;;;;;;;49.63;27.35;;;;;;;8.47;56.57;100689.75;4943125;28;20500;-78
2021/12/24 10:37:00;;;;;;;51.88;27.70;;;;;;;8.41;57.42;100693.66;4955605;28;20047;-78
2021/12/24 10:39:50;;;;;;;55.03;27.77;;;;;;;8.42;56.92;100700.69;4947828;28;20053;-79
2021/12/24 10:42:39;;;;;;;50.85;29.63;;;;;;;8.48;56.90;100685.91;4956730;28;20035;-79
2021/12/24 10:45:24;;;;;;;48.42;28.25;;;;;;;8.49;57.29;100676.69;4972457;28;20045;-79
2021/12/24 10:48:19;;;;;;;43.22;23.48;;;;;;;8.56;56.49;100671.69;4940389;28;20039;-78
2021/12/24 10:51:19;;;;;;;53.65;30.13;;;;;;;8.57;55.54;100689.56;4950499;28;20058;-79
2021/12/24 10:54:05;;;;;;;51.58;28.55;;;;;;;8.58;56.35;100669.44;4941893;28;20527;-80
2021/12/24 10:56:50;;;;;;;53.65;28.25;;;;;;;8.40;57.06;100678.50;4978032;28;20055;-80
2021/12/24 10:59:49;;;;;;;41.95;26.35;;;;;;;8.16;57.83;100686.00;4957015;28;20035;-80
2021/12/24 11:02:36;;;;;;;54.55;29.25;;;;;;;8.18;58.01;100678.34;4954777;28;20046;-79
2021/12/24 11:05:30;;;;;;;60.70;31.67;;;;;;;8.28;58.30;100666.56;4952679;28;20067;-79
2021/12/24 11:08:23;;;;;;;52.67;28.92;;;;;;;8.19;58.30;100663.72;4957989;28;20043;-79
2021/12/24 11:11:14;;;;;;;58.05;30.05;;;;;;;8.23;57.90;100672.84;4968999;28;20035;-78
2021/12/24 11:13:59;;;;;;;55.58;29.63;;;;;;;8.30;58.21;100672.47;4956980;28;20106;-81
2021/12/24 11:16:45;;;;;;;42.00;23.98;;;;;;;8.28;58.22;100663.84;4960847;28;20050;-79
2021/12/24 11:19:50;;;;;;;56.80;31.08;;;;;;;8.12;58.25;100657.91;4942853;28;20050;-79
2021/12/24 11:22:48;;;;;;;51.42;29.67;;;;;;;7.91;58.75;100662.91;4964552;28;20515;-78
2021/12/24 11:25:40;;;;;;;59.92;30.10;;;;;;;7.47;60.57;100646.34;4962992;28;20047;-77
2021/12/24 11:28:26;;;;;;;59.75;30.73;;;;;;;7.90;59.37;100636.13;4969135;28;20526;-78
2021/12/24 11:31:14;;;;;;;48.05;28.75;;;;;;;7.99;59.15;100640.53;4972469;28;20055;-78
2021/12/24 11:34:00;;;;;;;48.58;29.25;;;;;;;7.77;59.55;100639.63;4959870;28;20047;-79
2021/12/24 11:36:45;;;;;;;48.25;29.70;;;;;;;7.76;60.14;100633.41;4977773;28;20435;-78
2021/12/24 11:39:31;;;;;;;52.10;30.63;;;;;;;7.82;60.16;100624.09;4951603;28;20039;-79
2021/12/24 11:42:18;;;;;;;59.25;31.63;;;;;;;7.71;60.10;100612.66;4961594;28;20431;-78
2021/12/24 11:45:03;;;;;;;59.25;31.83;;;;;;;7.68;60.76;100604.31;4957016;28;20045;-78
2021/12/24 11:47:48;;;;;;;44.92;24.70;;;;;;;7.62;61.54;100605.47;4951641;28;20043;-79
2021/12/24 11:50:35;;;;;;;59.08;30.25;;;;;;;7.47;62.18;100594.94;4956503;28;20045;-79
2021/12/24 11:53:20;;;;;;;60.97;32.65;;;;;;;7.64;60.97;100590.56;4946621;28;20415;-79
2021/12/24 11:56:07;;;;;;;46.47;24.20;;;;;;;7.37;62.76;100590.50;4952376;28;20034;-79
2021/12/24 11:58:55;;;;;;;56.90;31.92;;;;;;;7.41;62.18;100588.84;4967938;28;20059;-79
2021/12/24 12:01:43;;;;;;;59.60;31.67;;;;;;;7.57;62.09;100590.16;4954616;28;20042;-77
2021/12/24 12:04:28;;;;;;;53.10;30.60;;;;;;;7.66;61.71;100598.41;4953532;28;20035;-77
2021/12/24 12:07:17;;;;;;;39.13;23.42;;;;;;;7.55;61.81;100605.91;4970075;28;20057;-78
2021/12/24 12:10:03;;;;;;;48.22;28.02;;;;;;;7.49;62.00;100609.78;4935959;28;20042;-78
2021/12/24 12:12:48;;;;;;;55.63;31.63;;;;;;;7.40;62.79;100616.97;4955737;28;20496;-78
2021/12/24 12:15:33;;;;;;;46.10;24.67;;;;;;;7.17;63.54;100602.47;4955299;28;20089;-78
2021/12/24 12:18:28;;;;;;;44.90;25.48;;;;;;;7.25;63.70;100585.59;4940667;28;20057;-78
2021/12/24 12:21:19;;;;;;;50.60;25.15;;;;;;;7.24;63.98;100573.16;4942940;28;20039;-78
2021/12/24 12:26:55;;;;;;;63.83;31.20;;;;;;;7.33;63.96;100573.28;4958027;28;20050;-78
2021/12/24 12:29:46;;;;;;;50.00;26.08;;;;;;;7.28;64.15;100570.66;4954379;28;20035;-78
2021/12/24 12:32:39;;;;;;;62.55;32.50;;;;;;;7.22;64.50;100574.53;4966931;28;20043;-78
2021/12/24 12:35:56;;;;;;;57.20;31.33;;;;;;;6.84;66.60;100566.50;4951566;28;20039;-78
2021/12/24 12:38:43;;;;;;;;;;;;;;;6.01;68.51;100564.41;4956831;28;20050;-78
2021/12/24 12:41:35;;;;;;;62.05;31.98;;;;;;;6.47;67.76;100553.00;4964165;28;19914;-78
2021/12/24 12:44:20;;;;;;;64.50;35.13;;;;;;;5.93;69.02;100545.34;4968205;28;20066;-78
2021/12/24 12:47:21;;;;;;;55.55;31.75;;;;;;;5.69;70.16;100564.19;4952138;28;20049;-78
2021/12/24 12:50:14;;;;;;;62.47;33.83;;;;;;;5.74;71.49;100569.53;4973595;28;20423;-78
2021/12/24 12:53:33;;;;;;;72.68;34.95;;;;;;;5.78;70.60;100575.97;4980960;28;20046;-77
2021/12/24 12:56:30;;;;;;;73.25;36.10;;;;;;;5.43;72.51;100569.06;4972952;28;20263;-78
2021/12/24 12:59:20;;;;;;;66.80;36.08;;;;;;;5.57;71.26;100556.50;4964620;28;20508;-78
2021/12/24 13:02:04;;;;;;;66.95;35.65;;;;;;;5.24;72.71;100549.28;4962453;28;20054;-78
2021/12/24 13:05:12;;;;;;;58.75;29.02;;;;;;;5.41;72.02;100548.84;4956378;28;20488;-78
2021/12/24 13:08:10;;;;;;;64.78;35.88;;;;;;;5.61;71.67;100537.84;4969115;28;20042;-78
2021/12/24 13:11:11;;;;;;;63.83;35.88;;;;;;;5.55;72.28;100552.47;4964209;28;20492;-78
2021/12/24 13:14:01;;;;;;;65.72;34.75;;;;;;;5.50;71.81;100556.03;4956644;28;20047;-77
2021/12/24 13:22:37;;;;;;;51.47;28.40;;;;;;;5.21;73.51;100541.75;4967834;28;20054;-78
2021/12/24 13:25:22;;;;;;;67.05;35.63;;;;;;;5.27;73.34;100526.34;4966668;28;20057;-79
2021/12/24 13:28:07;;;;;;;72.03;36.70;;;;;;;5.22;74.47;100523.69;4969056;28;20415;-77
2021/12/24 13:30:52;;;;;;;61.25;30.10;;;;;;;5.28;73.49;100527.97;4960037;28;20050;-79
2021/12/24 13:33:37;;;;;;;57.58;29.60;;;;;;;5.29;74.03;100513.38;4957182;28;20047;-78
2021/12/24 13:36:24;;;;;;;58.88;29.77;;;;;;;5.26;73.29;100505.88;4958044;28;20034;-78
2021/12/24 13:39:12;;;;;;;70.95;36.45;;;;;;;5.61;73.08;100510.88;4961283;28;20046;-78
2021/12/24 13:42:07;;;;;;;79.28;38.55;;;;;;;5.67;72.99;100504.34;4975180;28;20042;-79
2021/12/24 13:45:00;;;;;;;51.00;27.05;;;;;;;5.51;73.31;100497.50;4977837;28;20034;-79
2021/12/24 13:48:02;;;;;;;66.32;36.33;;;;;;;6.16;71.20;100495.91;4960368;28;20042;-78
2021/12/24 13:56:49;;;;;;;66.13;36.42;;;;;;;5.76;72.24;100515.28;4982600;28;20035;-78
2021/12/24 13:59:34;;;;;;;53.38;28.65;;;;;;;5.77;71.52;100506.13;4945485;28;20043;-80
2021/12/24 14:02:20;;;;;;;54.08;29.50;;;;;;;5.62;72.28;100499.00;4964945;28;20420;-79
2021/12/24 14:05:05;;;;;;;62.72;41.63;;;;;;;5.79;71.12;100507.41;4967786;28;20034;-79
2021/12/24 14:08:11;;;;;;;50.35;28.50;;;;;;;5.72;70.92;100509.69;4958347;28;20519;-77
2021/12/24 14:11:13;;;;;;;59.05;33.17;;;;;;;5.79;70.07;100512.03;4964977;28;20045;-78
2021/12/24 14:14:04;;;;;;;60.53;34.50;;;;;;;5.70;70.13;100503.75;4974750;28;20043;-79
2021/12/24 14:17:02;;;;;;;65.90;36.53;;;;;;;5.61;70.75;100492.00;4957869;28;20031;-78
2021/12/24 14:20:01;;;;;;;67.10;36.15;;;;;;;5.48;72.36;100507.00;4969853;28;20512;-79
2021/12/24 14:22:45;;;;;;;64.13;37.38;;;;;;;5.42;72.19;100491.94;4953530;28;20535;-78
2021/12/24 14:25:30;;;;;;;50.75;28.88;;;;;;;5.17;74.47;100492.22;4954440;29;20128;-78
2021/12/24 14:28:15;;;;;;;52.10;28.97;;;;;;;5.31;73.67;100511.22;4957594;28;20511;-78
2021/12/24 14:31:01;;;;;;;56.72;31.35;;;;;;;5.53;74.31;100481.84;4969044;28;20274;-79
2021/12/24 14:33:47;;;;;;;73.75;37.92;;;;;;;5.78;72.34;100478.84;4974064;28;20058;-78
2021/12/24 14:36:31;;;;;;;65.60;36.20;;;;;;;5.76;72.04;100474.81;4962383;28;20188;-79
2021/12/24 14:39:17;;;;;;;54.10;28.30;;;;;;;5.81;71.97;100475.56;4970884;28;20042;-80
2021/12/24 14:42:20;;;;;;;;;;;;;;;5.86;72.90;100474.69;4976214;28;20446;-79
2021/12/24 14:45:24;;;;;;;74.50;36.67;;;;;;;5.53;74.95;100488.06;4976106;28;19914;-83